Time;durP1;ratioP1;P1;durP2;ratioP2;P2;SDS_P1;SDS_P2;PMS_P1;PMS_P2;Temp;Humidity;BMP_temperature;BMP_pressure;BME280_temperature;BME280_humidity;BME280_pressure;Samples;Min_cycle;Max_cycle;Signal;HPM_P1;HPM_P2
2022/12/08 00:00:23;;;;;;;7.32;4.20;;;1.10;99.90;;;0.99;100.00;100388.22;5037824;28;20253;-73
2022/12/08 00:02:51;;;;;;;5.40;4.22;;;1.10;99.90;;;0.81;100.00;100395.41;5047307;28;20217;-74
2022/12/08 00:10:58;;;;;;;14.27;4.97;;;1.00;99.90;;;0.84;100.00;100392.41;5035273;28;20217;-71
2022/12/08 00:13:27;;;;;;;10.00;5.22;;;1.00;99.90;;;0.84;100.00;100395.06;5043042;28;20627;-72
2022/12/08 00:16:01;;;;;;;16.52;5.43;;;1.00;99.90;;;0.88;100.00;100396.44;5041408;28;20251;-73
2022/12/08 00:18:29;;;;;;;7.55;4.63;;;1.00;99.90;;;0.92;100.00;100391.66;5048211;28;20271;-72
2022/12/08 00:21:00;;;;;;;6.03;4.43;;;1.00;99.90;;;1.00;100.00;100389.06;5047826;28;20217;-72
2022/12/08 00:23:30;;;;;;;11.02;4.35;;;1.10;99.90;;;0.99;100.00;100390.91;5034239;28;20205;-72
2022/12/08 00:26:04;;;;;;;6.50;4.88;;;1.10;99.90;;;1.08;100.00;100384.66;5042669;28;20189;-73
2022/12/08 00:28:35;;;;;;;16.60;4.55;;;;;;;1.07;100.00;100385.63;5044740;28;20223;-71
2022/12/08 00:31:09;;;;;;;8.30;5.07;;;;;;;1.10;100.00;100379.16;5042810;28;20296;-72
2022/12/08 00:33:38;;;;;;;7.18;4.75;;;;;;;1.10;100.00;100374.69;5037197;28;20221;-73
2022/12/08 00:36:08;;;;;;;6.07;4.85;;;;;;;1.15;100.00;100376.88;5035210;28;20186;-73
2022/12/08 00:38:38;;;;;;;9.75;5.63;;;;;;;1.19;100.00;100368.41;5040923;28;20276;-72
2022/12/08 00:41:14;;;;;;;7.95;4.75;;;;;;;1.14;100.00;100362.72;5038152;28;20193;-72
2022/12/08 00:43:43;;;;;;;7.47;5.43;;;;;;;1.12;100.00;100356.69;5043240;28;20213;-72
2022/12/08 00:46:12;;;;;;;12.15;5.88;;;;;;;1.11;100.00;100360.38;5034808;28;20197;-70
2022/12/08 00:48:41;;;;;;;12.70;5.70;;;;;;;1.24;100.00;100360.81;5034967;28;20212;-71
2022/12/08 00:51:10;;;;;;;10.95;4.75;;;;;;;1.16;100.00;100358.06;5038889;28;20615;-72
2022/12/08 00:53:39;;;;;;;14.70;6.60;;;;;;;1.27;100.00;100357.81;5040743;28;20300;-74
2022/12/08 00:56:10;;;;;;;8.90;6.05;;;;;;;1.37;100.00;100370.22;5038084;28;20551;-72
2022/12/08 00:58:39;;;;;;;8.23;5.15;;;;;;;1.38;100.00;100361.22;5047654;28;20223;-71
2022/12/08 01:01:11;;;;;;;7.63;5.68;;;;;;;1.39;100.00;100360.22;5040745;28;20211;-74
2022/12/08 01:03:40;;;;;;;13.25;5.88;;;;;;;1.47;100.00;100357.63;5042344;28;20205;-71
2022/12/08 01:06:10;;;;;;;8.52;5.57;;;;;;;1.58;100.00;100362.69;5038325;28;20205;-73
2022/12/08 01:08:40;;;;;;;8.00;5.35;;;;;;;1.61;100.00;100363.22;5042469;28;20220;-72
2022/12/08 01:11:13;;;;;;;9.90;6.63;;;;;;;1.64;100.00;100370.06;5042563;28;20287;-73
2022/12/08 01:13:42;;;;;;;11.27;5.30;;;;;;;1.59;100.00;100369.72;5035021;28;20626;-71
2022/12/08 01:16:20;;;;;;;7.28;4.93;;;;;;;1.66;100.00;100360.06;5040884;28;20280;-73
2022/12/08 01:18:50;;;;;;;10.27;6.57;;;;;;;1.77;100.00;100350.97;5032867;28;20231;-72
2022/12/08 01:21:19;;;;;;;7.65;5.25;;;;;;;1.67;100.00;100359.06;5047493;28;20193;-72
2022/12/08 01:23:48;;;;;;;8.15;6.10;;;;;;;1.65;100.00;100353.06;5041094;28;20233;-72
2022/12/08 01:26:20;;;;;;;9.88;6.68;;;;;;;1.55;100.00;100349.69;5034230;28;20239;-72
2022/12/08 01:28:49;;;;;;;6.90;4.68;;;;;;;1.67;100.00;100353.75;5041004;28;20304;-73
2022/12/08 01:31:21;;;;;;;11.68;7.45;;;;;;;1.69;100.00;100349.09;5039826;28;20193;-73
2022/12/08 01:33:50;;;;;;;14.85;6.90;;;;;;;1.71;100.00;100347.94;5034529;28;20213;-73
2022/12/08 01:36:22;;;;;;;10.70;6.05;;;;;;;1.70;100.00;100345.41;5039612;28;20193;-74
2022/12/08 01:38:52;;;;;;;10.15;5.57;;;;;;;1.77;100.00;100341.13;5038449;28;20751;-73
2022/12/08 01:41:25;;;;;;;12.07;5.13;;;;;;;1.83;100.00;100334.31;5040250;28;20692;-72
2022/12/08 01:44:00;;;;;;;15.57;7.72;;;;;;;1.77;100.00;100334.97;5036572;28;20236;-71
2022/12/08 01:46:31;;;;;;;9.98;6.50;;;;;;;1.81;100.00;100328.31;5042359;28;20280;-72
2022/12/08 01:49:05;;;;;;;8.10;5.82;;;;;;;1.76;100.00;100328.78;5035997;28;20216;-71
2022/12/08 01:51:41;;;;;;;10.65;6.72;;;;;;;1.74;100.00;100320.13;5041633;28;20196;-73
2022/12/08 01:54:12;;;;;;;8.02;5.90;;;;;;;1.62;100.00;100316.88;5043128;28;20191;-74
2022/12/08 01:56:48;;;;;;;8.35;5.20;;;;;;;1.68;100.00;100315.41;5039779;28;20276;-74
2022/12/08 01:59:19;;;;;;;7.55;4.85;;;;;;;1.64;100.00;100312.25;5039721;28;20203;-73
2022/12/08 02:01:52;;;;;;;9.15;5.53;;;;;;;1.92;100.00;100307.53;5031427;28;20193;-72
2022/12/08 02:04:21;;;;;;;8.90;5.25;;;;;;;2.15;100.00;100313.94;5032475;28;20201;-72
2022/12/08 02:06:51;;;;;;;9.50;5.47;;;;;;;2.06;100.00;100303.41;5038580;28;20788;-72
2022/12/08 02:09:21;;;;;;;8.65;5.32;;;;;;;1.92;100.00;100307.53;5045333;28;20266;-73
2022/12/08 02:11:56;;;;;;;14.82;7.22;;;;;;;1.80;100.00;100292.78;5045190;28;20220;-73
2022/12/08 02:14:25;;;;;;;12.02;4.50;;;;;;;1.85;100.00;100295.81;5032175;28;20362;-73
2022/12/08 02:17:03;;;;;;;8.07;4.97;;;;;;;1.95;100.00;100293.84;5033703;28;20284;-73
2022/12/08 02:20:13;;;;;;;7.80;6.93;;;;;;;1.80;100.00;100287.44;5040467;28;20284;-76
2022/12/08 02:22:49;;;;;;;7.60;4.90;;;;;;;1.80;100.00;100286.59;5038452;28;20283;-73
2022/12/08 02:25:27;;;;;;;7.53;5.72;;;;;;;1.77;100.00;100287.78;5039468;28;20208;-72
2022/12/08 02:28:08;;;;;;;5.32;4.55;;;;;;;1.68;100.00;100283.41;5033964;28;20256;-73
2022/12/08 02:30:47;;;;;;;6.38;4.50;;;;;;;1.68;100.00;100273.56;5032873;28;20201;-73
2022/12/08 02:34:03;;;;;;;13.07;7.20;;;;;;;1.56;100.00;100268.66;5037207;28;20227;-73
2022/12/08 02:36:39;;;;;;;10.63;5.05;;;;;;;1.65;100.00;100265.03;5036817;28;20200;-73
2022/12/08 02:39:20;;;;;;;7.28;4.88;;;;;;;1.72;100.00;100269.59;5056591;28;20197;-76
2022/12/08 02:41:57;;;;;;;7.10;5.63;;;;;;;1.85;100.00;100268.28;5038933;28;20196;-73
2022/12/08 02:44:33;;;;;;;7.10;5.18;;;;;;;1.91;100.00;100263.16;5035904;28;20228;-73
2022/12/08 02:47:08;;;;;;;6.65;4.40;;;;;;;1.72;100.00;100260.75;5034020;28;20219;-73
2022/12/08 02:49:39;;;;;;;7.07;4.47;;;;;;;1.79;100.00;100258.28;5037140;28;20188;-72
2022/12/08 02:52:24;;;;;;;10.57;6.60;;;;;;;1.64;100.00;100250.06;5038315;28;20731;-72
2022/12/08 02:54:57;;;;;;;7.05;4.55;;;;;;;1.64;100.00;100250.06;5032378;28;20231;-72
2022/12/08 02:57:36;;;;;;;7.43;4.93;;;;;;;1.66;100.00;100246.22;5035644;28;20232;-73
2022/12/08 03:00:09;;;;;;;6.32;3.92;;;;;;;1.69;100.00;100242.41;5034279;28;20189;-72
2022/12/08 03:02:48;;;;;;;4.90;3.90;;;;;;;1.64;100.00;100242.06;5045919;28;20212;-72
2022/12/08 03:05:41;;;;;;;10.05;4.95;;;;;;;1.68;100.00;100236.25;5042729;28;20204;-71
2022/12/08 03:08:16;;;;;;;6.05;3.97;;;;;;;1.76;100.00;100238.09;5033301;28;20193;-70
2022/12/08 03:10:49;;;;;;;7.20;4.50;;;;;;;1.68;100.00;100236.25;5039802;28;20564;-71
2022/12/08 03:13:23;;;;;;;9.80;4.15;;;;;;;1.62;100.00;100226.22;5038318;28;20232;-72
2022/12/08 03:15:55;;;;;;;9.48;5.45;;;;;;;1.79;100.00;100221.78;5044082;28;20235;-71
2022/12/08 03:18:28;;;;;;;6.47;4.00;;;;;;;1.75;100.00;100228.41;5059823;28;20670;-71
2022/12/08 03:21:00;;;;;;;6.50;4.47;;;;;;;1.68;100.00;100219.41;5044757;28;20186;-71
2022/12/08 03:23:30;;;;;;;6.88;3.22;;;;;;;1.68;100.00;100224.72;5047784;28;20209;-72
2022/12/08 03:26:11;;;;;;;4.88;3.47;;;;;;;1.86;100.00;100206.78;5045504;28;20203;-71
2022/12/08 03:28:40;;;;;;;4.40;3.65;;;;;;;1.72;100.00;100218.06;5042079;28;20208;-72
2022/12/08 03:31:14;;;;;;;8.88;3.88;;;;;;;1.66;100.00;100221.38;5044632;28;20193;-72
2022/12/08 03:33:48;;;;;;;5.07;4.03;;;;;;;1.65;100.00;100212.53;5052984;28;20224;-71
2022/12/08 03:36:19;;;;;;;5.00;2.92;;;;;;;1.71;100.00;100213.72;5053635;28;20666;-73
2022/12/08 03:38:52;;;;;;;5.85;3.78;;;;;;;1.63;100.00;100209.22;5050349;28;20196;-73
2022/12/08 03:41:22;;;;;;;7.18;4.30;;;;;;;1.66;100.00;100197.38;5059499;28;20256;-71
2022/12/08 03:43:53;;;;;;;9.98;5.30;;;;;;;1.71;100.00;100197.72;5049421;28;20269;-72
2022/12/08 03:46:23;;;;;;;5.57;4.00;;;;;;;1.50;100.00;100189.34;5054403;28;20288;-71
2022/12/08 03:48:51;;;;;;;5.13;4.03;;;;;;;1.69;100.00;100194.41;5057784;28;20711;-71
2022/12/08 03:51:28;;;;;;;4.53;3.42;;;;;;;1.71;100.00;100181.72;5040821;28;20556;-72
2022/12/08 03:58:16;;;;;;;6.13;3.65;;;;;;;1.67;100.00;100185.72;5038703;28;20230;-73
2022/12/08 04:00:45;;;;;;;5.82;3.97;;;;;;;1.55;100.00;100182.50;5038212;28;20232;-72
2022/12/08 04:03:14;;;;;;;9.70;4.63;;;;;;;1.62;100.00;100180.03;5036201;28;20299;-71
2022/12/08 04:05:43;;;;;;;4.97;3.83;;;;;;;1.57;100.00;100174.34;5036160;28;20198;-73
2022/12/08 04:08:14;;;;;;;5.85;3.78;;;;;;;1.64;100.00;100164.72;5037806;28;20189;-73
2022/12/08 04:10:43;;;;;;;8.52;4.72;;;;;;;1.61;100.00;100165.03;5041193;28;20258;-74
2022/12/08 04:13:12;;;;;;;6.53;4.70;;;;;;;1.62;100.00;100170.19;5042245;28;20241;-72
2022/12/08 04:15:46;;;;;;;5.18;3.88;;;;;;;1.48;100.00;100162.81;5042652;28;20255;-72
2022/12/08 04:18:35;;;;;;;10.65;5.93;;;;;;;1.64;100.00;100154.03;5044585;28;20257;-72
2022/12/08 04:21:04;;;;;;;5.95;5.35;;;;;;;1.70;100.00;100162.22;5047710;28;20181;-74
2022/12/08 04:23:35;;;;;;;10.93;5.70;;;;;;;1.53;100.00;100162.34;5047133;28;20263;-72
2022/12/08 04:26:04;;;;;;;9.98;5.47;;;;;;;1.56;100.00;100159.34;5047836;28;20275;-71
2022/12/08 04:28:33;;;;;;;8.55;5.85;;;;;;;1.62;100.00;100156.03;5053366;28;20200;-74
2022/12/08 04:31:03;;;;;;;7.40;4.82;;;;;;;1.69;100.00;100163.19;5044915;28;20249;-73
2022/12/08 04:33:35;;;;;;;9.90;5.03;;;;;;;1.66;100.00;100155.53;5068806;22;20235;-74
2022/12/08 04:36:05;;;;;;;7.78;5.00;;;;;;;1.62;100.00;100156.03;5046842;28;20219;-75
2022/12/08 04:38:37;;;;;;;9.30;6.45;;;;;;;1.73;100.00;100153.06;5054518;28;20663;-75
2022/12/08 04:41:07;;;;;;;11.07;5.60;;;;;;;1.53;100.00;100157.00;5054216;28;20254;-74
2022/12/08 04:43:36;;;;;;;11.20;5.78;;;;;;;1.57;100.00;100150.34;5054201;28;20632;-75
2022/12/08 04:46:07;;;;;;;10.45;5.20;;;;;;;1.55;100.00;100155.03;5039242;28;20270;-74
2022/12/08 04:48:39;;;;;;;9.75;6.55;;;;;;;1.63;100.00;100149.72;5054959;28;20173;-74
2022/12/08 04:51:14;;;;;;;10.23;5.10;;;;;;;1.61;100.00;100151.69;5056826;28;20760;-75
2022/12/08 04:53:45;;;;;;;8.95;5.88;;;;;;;1.55;100.00;100144.34;5064747;28;20216;-75
2022/12/08 04:56:16;;;;;;;8.18;4.95;;;;;;;1.66;100.00;100149.38;5052861;28;20611;-74
2022/12/08 04:58:48;;;;;;;10.00;6.43;;;;;;;1.81;100.00;100146.91;5046659;28;20189;-75
2022/12/08 05:01:17;;;;;;;15.38;6.38;;;;;;;1.81;100.00;100144.22;5060357;28;20201;-75
2022/12/08 05:03:46;;;;;;;12.55;6.30;;;;;;;2.00;100.00;100144.75;5061943;28;20245;-75
2022/12/08 05:06:16;;;;;;;9.70;5.88;;;;;;;1.94;100.00;100140.06;5062261;28;20208;-75
2022/12/08 05:08:46;;;;;;;8.43;5.57;;;;;;;1.87;100.00;100149.75;5065903;28;20212;-74
2022/12/08 05:11:15;;;;;;;10.90;6.25;;;;;;;1.91;100.00;100140.41;5052068;28;20212;-76
2022/12/08 05:13:45;;;;;;;8.38;5.93;;;;;;;2.00;100.00;100134.09;5054678;28;20189;-75
2022/12/08 05:16:15;;;;;;;9.55;6.65;;;;;;;2.03;100.00;100131.06;5054085;28;20185;-75
2022/12/08 05:18:45;;;;;;;12.65;5.32;;;;;;;1.99;100.00;100128.91;5054228;28;20234;-74
2022/12/08 05:21:14;;;;;;;10.32;7.85;;;;;;;2.07;100.00;100140.44;5053715;28;20212;-76
2022/12/08 05:23:43;;;;;;;7.93;6.80;;;;;;;2.17;100.00;100138.44;5054137;28;20199;-75
2022/12/08 05:26:13;;;;;;;11.25;7.78;;;;;;;2.16;100.00;100135.94;5057892;28;20210;-75
2022/12/08 05:28:43;;;;;;;10.10;7.30;;;;;;;2.09;100.00;100132.25;5068390;28;20173;-75
2022/12/08 05:31:13;;;;;;;11.50;6.53;;;;;;;2.08;100.00;100131.41;5070314;28;20235;-75
2022/12/08 05:33:43;;;;;;;12.43;7.22;;;;;;;2.10;100.00;100129.44;5062542;28;20212;-75
2022/12/08 05:36:14;;;;;;;8.70;5.90;;;;;;;2.04;100.00;100127.41;5057454;28;20275;-76
2022/12/08 05:38:44;;;;;;;18.65;6.57;;;;;;;2.02;100.00;100126.75;5057325;28;20212;-76
2022/12/08 05:41:17;;;;;;;13.65;8.30;;;;;;;2.09;100.00;100125.09;5054702;28;20281;-75
2022/12/08 05:43:49;;;;;;;13.20;8.98;;;;;;;2.00;100.00;100122.56;5053686;28;20254;-75
2022/12/08 05:46:18;;;;;;;10.68;7.28;;;;;;;2.10;100.00;100124.09;5053738;28;20284;-75
2022/12/08 05:48:47;;;;;;;17.73;9.40;;;;;;;1.95;100.00;100123.06;5053895;28;20288;-77
2022/12/08 05:51:20;;;;;;;13.48;8.10;;;;;;;1.83;100.00;100119.06;5053187;28;20568;-76
2022/12/08 05:53:50;;;;;;;23.08;11.55;;;;;;;1.84;100.00;100115.38;5053534;28;20234;-76
2022/12/08 05:56:21;;;;;;;13.40;7.72;;;;;;;1.76;100.00;100115.38;5053486;28;20180;-77
2022/12/08 05:58:51;;;;;;;18.08;9.02;;;;;;;1.90;100.00;100112.06;5047571;28;20181;-75
2022/12/08 06:01:22;;;;;;;13.73;9.70;;;;;;;1.83;100.00;100115.56;5036199;28;20236;-75
2022/12/08 06:03:51;;;;;;;14.07;8.13;;;;;;;1.96;100.00;100118.56;5037925;28;20230;-75
2022/12/08 06:06:21;;;;;;;15.43;8.90;;;;;;;1.94;100.00;100120.56;5053147;28;20287;-75
2022/12/08 06:08:50;;;;;;;16.95;9.30;;;;;;;2.13;100.00;100115.75;5052682;28;20234;-75
2022/12/08 06:11:23;;;;;;;15.75;8.27;;;;;;;2.29;100.00;100117.56;5051217;28;20239;-75
2022/12/08 06:13:53;;;;;;;16.58;8.68;;;;;;;2.30;100.00;100118.41;5052497;28;20209;-76
2022/12/08 06:16:23;;;;;;;14.60;8.80;;;;;;;2.08;100.00;100118.06;5052906;28;20659;-76
2022/12/08 06:18:52;;;;;;;17.55;10.10;;;;;;;2.11;100.00;100116.91;5053277;28;20207;-74
2022/12/08 06:21:21;;;;;;;12.10;9.63;;;;;;;2.06;100.00;100116.59;5052973;28;20212;-74
2022/12/08 06:23:53;;;;;;;21.77;9.30;;;;;;;2.11;100.00;100117.75;5052133;28;20271;-75
2022/12/08 06:26:24;;;;;;;15.18;9.00;;;;;;;2.30;100.00;100118.41;5052585;28;20568;-75
2022/12/08 06:28:53;;;;;;;13.38;8.15;;;;;;;2.34;100.00;100114.41;5053201;28;20588;-76
2022/12/08 06:31:25;;;;;;;13.95;8.68;;;;;;;2.18;100.00;100118.75;5052681;28;20291;-75
2022/12/08 06:33:55;;;;;;;15.70;11.45;;;;;;;2.25;100.00;100115.41;5048773;28;20205;-75
2022/12/08 06:36:25;;;;;;;18.05;10.48;;;;;;;2.39;100.00;100131.59;5042467;28;20612;-75
2022/12/08 06:38:55;;;;;;;10.57;7.32;;;;;;;2.29;100.00;100122.06;5056692;28;20207;-75
2022/12/08 06:41:26;;;;;;;16.35;9.70;;;;;;;2.33;100.00;100118.91;5056746;28;20204;-75
2022/12/08 06:43:57;;;;;;;19.08;10.15;;;;;;;2.18;100.00;100123.25;5056163;28;20192;-74
2022/12/08 06:46:26;;;;;;;18.67;10.60;;;;;;;2.13;100.00;100118.41;5056836;28;20196;-74
2022/12/08 06:48:55;;;;;;;17.58;10.50;;;;;;;2.27;100.00;100118.75;5056946;28;20216;-75
2022/12/08 06:51:24;;;;;;;17.75;9.82;;;;;;;2.38;100.00;100116.56;5057021;28;20213;-75
2022/12/08 06:53:53;;;;;;;20.85;9.38;;;;;;;2.35;100.00;100118.75;5057444;28;20193;-75
2022/12/08 06:56:26;;;;;;;10.07;6.45;;;;;;;2.35;100.00;100121.41;5040880;28;20220;-74
2022/12/08 06:58:56;;;;;;;11.85;8.60;;;;;;;2.39;100.00;100115.56;5059729;28;20539;-74
2022/12/08 07:01:25;;;;;;;17.73;11.18;;;;;;;2.31;100.00;100123.59;5041779;28;20247;-75
2022/12/08 07:03:54;;;;;;;12.45;8.23;;;;;;;2.23;100.00;100120.91;5067337;28;20203;-75
2022/12/08 07:06:24;;;;;;;14.35;9.38;;;;;;;2.22;100.00;100126.44;5065993;28;20216;-74
2022/12/08 07:08:54;;;;;;;15.75;9.57;;;;;;;2.40;100.00;100124.41;5064959;28;20180;-75
2022/12/08 07:11:24;;;;;;;13.13;8.07;;;;;;;2.42;100.00;100135.78;5064918;28;20228;-74
2022/12/08 07:13:55;;;;;;;17.10;10.77;;;;;;;2.45;100.00;100132.75;5066785;28;20660;-75
2022/12/08 07:16:25;;;;;;;13.57;8.52;;;;;;;2.46;100.00;100134.44;5068404;28;20199;-75
2022/12/08 07:18:54;;;;;;;20.08;9.93;;;;;;;2.53;100.00;100135.41;5060022;28;20215;-75
2022/12/08 07:21:23;;;;;;;13.52;8.85;;;;;;;2.46;100.00;100131.75;5056789;28;20209;-75
2022/12/08 07:23:52;;;;;;;22.42;9.40;;;;;;;2.54;100.00;100129.91;5056134;28;20268;-74
2022/12/08 07:26:27;;;;;;;32.55;11.88;;;;;;;2.70;100.00;100126.38;5056035;28;20196;-74
2022/12/08 07:28:56;;;;;;;13.82;9.80;;;;;;;2.55;100.00;100133.41;5050580;28;20250;-74
2022/12/08 07:31:27;;;;;;;15.25;10.48;;;;;;;2.58;100.00;100133.06;5056631;28;20254;-75
2022/12/08 07:33:57;;;;;;;23.50;9.55;;;;;;;2.68;100.00;100127.53;5055952;28;20207;-76
2022/12/08 07:36:26;;;;;;;16.92;10.35;;;;;;;2.58;100.00;100130.41;5056866;28;20201;-74
2022/12/08 07:38:55;;;;;;;15.50;9.45;;;;;;;2.71;100.00;100128.03;5055770;28;20193;-76
2022/12/08 07:41:27;;;;;;;18.90;10.40;;;;;;;2.72;100.00;100128.88;5055830;28;20291;-74
2022/12/08 07:43:57;;;;;;;24.58;10.88;;;;;;;2.83;100.00;100129.34;5056117;28;20212;-76
2022/12/08 07:46:26;;;;;;;32.53;10.05;;;;;;;2.88;100.00;100128.84;5055347;28;20273;-76
2022/12/08 07:48:56;;;;;;;21.15;11.23;;;;;;;2.88;100.00;100129.66;5056250;28;20233;-77
2022/12/08 07:51:25;;;;;;;16.88;9.68;;;;;;;2.86;100.00;100137.00;5056674;28;20211;-79
2022/12/08 07:53:54;;;;;;;20.95;11.27;;;;;;;3.00;100.00;100132.81;5056431;28;20718;-78
2022/12/08 07:56:24;;;;;;;21.52;9.18;;;;;;;3.13;100.00;100124.25;5056346;28;20281;-75
2022/12/08 07:58:54;;;;;;;16.83;8.60;;;;;;;2.96;100.00;100126.97;5055629;28;20246;-75
2022/12/08 08:01:25;;;;;;;17.75;8.88;;;;;;;3.09;100.00;100126.44;5055170;28;20691;-75
2022/12/08 08:04:00;;;;;;;22.55;11.80;;;;;;;3.11;100.00;100128.91;5055062;28;20172;-75
2022/12/08 08:06:29;;;;;;;15.35;10.68;;;;;;;3.11;100.00;100140.44;5037618;28;20203;-75
2022/12/08 08:08:59;;;;;;;20.60;10.23;;;;;;;3.09;100.00;100136.31;5056190;28;20231;-74
2022/12/08 08:11:28;;;;;;;13.48;9.52;;;;;;;3.05;100.00;100139.28;5055515;28;20208;-75
2022/12/08 08:13:58;;;;;;;11.32;7.70;;;;;;;2.92;100.00;100136.34;5055347;28;20188;-75
2022/12/08 08:16:28;;;;;;;13.18;8.13;;;;;;;3.17;100.00;100138.94;5055429;28;20187;-75
2022/12/08 08:19:04;;;;;;;14.70;10.43;;;;;;;3.04;100.00;100140.31;5055552;28;20203;-77
2022/12/08 08:21:33;;;;;;;18.88;9.85;;;;;;;3.18;100.00;100145.94;5055546;28;20591;-74
2022/12/08 08:24:14;;;;;;;16.40;10.43;;;;;;;3.06;100.00;100149.00;5055743;28;20576;-75
2022/12/08 08:26:43;;;;;;;14.75;8.15;;;;;;;2.96;100.00;100137.66;5054971;28;20189;-74
2022/12/08 08:29:14;;;;;;;12.23;8.60;;;;;;;3.01;100.00;100134.47;5054746;28;20631;-74
2022/12/08 08:31:43;;;;;;;16.40;9.18;;;;;;;3.09;100.00;100136.31;5054718;28;20213;-74
2022/12/08 08:34:12;;;;;;;12.18;7.72;;;;;;;3.12;100.00;100133.28;5053808;28;20201;-75
2022/12/08 08:36:41;;;;;;;16.50;8.25;;;;;;;3.15;100.00;100131.06;5036991;28;20284;-76
2022/12/08 08:39:11;;;;;;;13.18;8.80;;;;;;;3.33;99.57;100134.38;5054376;28;20193;-74
2022/12/08 08:41:40;;;;;;;14.48;9.18;;;;;;;3.27;99.96;100144.91;5053411;28;20263;-76
2022/12/08 08:44:09;;;;;;;9.80;6.85;;;;;;;3.12;100.00;100135.94;5054553;28;20189;-75
2022/12/08 08:46:40;;;;;;;12.45;8.38;;;;;;;3.20;100.00;100138.56;5055157;28;20184;-74
2022/12/08 08:49:09;;;;;;;13.48;7.80;;;;;;;3.20;99.86;100143.94;5054485;28;20196;-74
2022/12/08 08:51:38;;;;;;;17.20;9.95;;;;;;;3.19;99.89;100136.94;5054638;28;20766;-75
2022/12/08 08:54:07;;;;;;;14.63;8.02;;;;;;;3.28;100.00;100138.56;5055264;28;20288;-74
2022/12/08 08:56:36;;;;;;;18.20;8.98;;;;;;;3.38;100.00;100136.53;5055417;28;20184;-76
2022/12/08 08:59:05;;;;;;;23.00;9.63;;;;;;;3.71;99.63;100137.19;5056310;28;20711;-76
2022/12/08 09:01:35;;;;;;;14.52;8.70;;;;;;;3.72;98.70;100137.00;5171964;22;20585;-76
2022/12/08 09:04:06;;;;;;;15.88;7.35;;;;;;;3.77;97.19;100131.97;5054043;28;20218;-78
2022/12/08 09:06:35;;;;;;;13.50;9.57;;;;;;;3.77;97.32;100126.59;5053762;28;20193;-77
2022/12/08 09:09:04;;;;;;;21.45;9.27;;;;;;;3.74;96.99;100134.13;5054200;28;20250;-76
2022/12/08 09:11:34;;;;;;;13.15;7.93;;;;;;;3.68;97.08;100122.28;5037362;28;20225;-77
2022/12/08 09:14:03;;;;;;;13.25;8.93;;;;;;;3.62;97.51;100123.00;5033646;28;20274;-75
2022/12/08 09:16:32;;;;;;;13.35;9.82;;;;;;;3.80;97.21;100126.25;5015656;28;20257;-76
2022/12/08 09:19:11;;;;;;;15.27;8.57;;;;;;;3.73;97.63;100125.28;5033858;28;20192;-76
2022/12/08 09:21:40;;;;;;;16.08;8.98;;;;;;;3.74;96.79;100126.94;5036780;28;20220;-77
2022/12/08 09:24:14;;;;;;;15.80;8.70;;;;;;;3.65;97.33;100125.31;5019334;28;20197;-77
2022/12/08 09:26:45;;;;;;;18.63;8.75;;;;;;;3.69;97.69;100113.25;5036263;28;20174;-77
2022/12/08 09:29:16;;;;;;;15.93;10.77;;;;;;;3.62;97.66;100115.00;5021242;28;20279;-75
2022/12/08 09:31:46;;;;;;;14.20;8.27;;;;;;;3.58;97.06;100113.69;5035333;28;20582;-77
2022/12/08 09:34:17;;;;;;;16.98;7.60;;;;;;;3.56;97.38;100113.00;5034076;28;20275;-75
2022/12/08 09:36:46;;;;;;;14.55;9.30;;;;;;;3.74;96.91;100110.88;5033022;28;20686;-76
2022/12/08 09:39:15;;;;;;;19.90;9.82;;;;;;;3.69;96.39;100107.91;5033523;28;20262;-75
2022/12/08 09:41:49;;;;;;;15.90;9.00;;;;;;;3.67;97.44;100106.44;5039041;28;20205;-76
2022/12/08 09:44:53;;;;;;;15.20;9.32;;;;;;;3.73;97.28;100098.50;5046586;28;20191;-75
2022/12/08 09:47:27;;;;;;;17.17;9.40;;;;;;;3.71;97.31;100105.06;5032684;28;20615;-77
2022/12/08 09:50:12;;;;;;;16.55;8.65;;;;;;;3.69;97.56;100097.19;5033105;28;20211;-77
2022/12/08 09:52:45;;;;;;;18.08;9.65;;;;;;;3.79;96.56;100097.81;5033254;28;20239;-77
2022/12/08 09:55:23;;;;;;;22.25;9.57;;;;;;;3.74;96.91;100096.66;5033317;28;20174;-76
2022/12/08 09:58:00;;;;;;;13.88;8.52;;;;;;;3.83;96.44;100099.13;5015712;28;20201;-78
2022/12/08 10:00:29;;;;;;;16.10;9.45;;;;;;;3.70;96.53;100092.69;5035041;28;20648;-76
2022/12/08 10:03:08;;;;;;;14.73;8.98;;;;;;;3.79;96.16;100092.47;5033427;28;20224;-77
2022/12/08 10:06:09;;;;;;;15.20;9.27;;;;;;;3.88;96.22;100096.75;5011982;28;20235;-77
2022/12/08 10:08:46;;;;;;;13.02;8.73;;;;;;;3.95;95.75;100096.88;5036295;28;20237;-77
2022/12/08 10:11:23;;;;;;;18.40;9.60;;;;;;;3.87;97.01;100094.25;5033672;28;20232;-76
2022/12/08 10:14:05;;;;;;;16.50;8.77;;;;;;;3.79;97.21;100096.97;5037271;28;20192;-77
2022/12/08 10:16:39;;;;;;;14.57;8.55;;;;;;;3.87;97.65;100086.22;5034344;28;20633;-77
2022/12/08 10:19:17;;;;;;;12.52;7.88;;;;;;;3.89;97.45;100087.69;5029546;28;20360;-77
2022/12/08 10:21:48;;;;;;;13.90;8.70;;;;;;;3.75;97.16;100090.31;5034919;28;20196;-76
2022/12/08 10:24:25;;;;;;;14.77;9.63;;;;;;;3.84;97.37;100084.72;5036587;28;20193;-76
2022/12/08 10:26:59;;;;;;;13.05;7.90;;;;;;;3.92;97.48;100081.97;5036169;28;20251;-76
2022/12/08 10:29:31;;;;;;;13.68;7.97;;;;;;;3.98;96.95;100077.75;5036883;28;20208;-76
2022/12/08 10:32:01;;;;;;;15.38;8.95;;;;;;;4.09;96.74;100071.16;5036153;28;20185;-77
2022/12/08 10:34:31;;;;;;;15.25;8.25;;;;;;;4.11;96.27;100077.16;5031715;28;20198;-75
2022/12/08 10:37:10;;;;;;;11.73;7.95;;;;;;;4.14;96.18;100074.13;5056367;28;20276;-75
2022/12/08 10:39:42;;;;;;;13.13;8.35;;;;;;;4.13;96.08;100073.28;5040056;28;20628;-76
2022/12/08 10:42:20;;;;;;;11.77;6.43;;;;;;;4.13;96.00;100067.09;5037598;28;20268;-76
2022/12/08 10:45:03;;;;;;;11.07;6.88;;;;;;;4.04;95.56;100068.19;5033300;28;20177;-76
2022/12/08 10:47:38;;;;;;;11.18;6.95;;;;;;;4.17;95.85;100069.22;5033302;28;20228;-76
2022/12/08 10:50:21;;;;;;;11.18;6.97;;;;;;;4.16;95.79;100059.56;5033064;28;20717;-76
2022/12/08 10:52:59;;;;;;;13.80;8.38;;;;;;;4.30;95.45;100058.75;5032585;28;20205;-77
2022/12/08 10:55:39;;;;;;;13.35;7.32;;;;;;;4.24;95.75;100064.00;5032550;28;20180;-74
2022/12/08 10:58:29;;;;;;;12.80;8.43;;;;;;;4.36;95.87;100057.16;5014772;28;20201;-76
2022/12/08 11:01:02;;;;;;;14.68;7.75;;;;;;;4.36;94.90;100067.88;5014523;28;20228;-76
2022/12/08 11:03:35;;;;;;;12.52;8.82;;;;;;;4.26;94.70;100061.97;5032225;28;20170;-76
2022/12/08 11:06:15;;;;;;;10.55;7.70;;;;;;;4.34;95.06;100053.84;5015661;28;20664;-74
2022/12/08 11:08:52;;;;;;;11.60;7.82;;;;;;;4.22;94.99;100055.28;5034271;28;20197;-76
2022/12/08 11:11:44;;;;;;;11.30;7.45;;;;;;;4.27;95.97;100053.75;5034707;28;20205;-75
2022/12/08 11:14:19;;;;;;;14.10;7.05;;;;;;;4.21;96.43;100048.31;5034573;28;20190;-77
2022/12/08 11:16:51;;;;;;;12.20;7.22;;;;;;;4.02;96.34;100051.50;5015121;28;20314;-76
2022/12/08 11:19:26;;;;;;;6.28;5.35;;;;;;;3.91;96.86;100050.91;5032350;28;20243;-76
2022/12/08 11:21:55;;;;;;;10.90;6.88;;;;;;;3.85;97.54;100059.63;5035751;28;20235;-76
2022/12/08 11:24:28;;;;;;;11.20;6.28;;;;;;;3.69;97.89;100053.56;5036629;28;20239;-75
2022/12/08 11:27:10;;;;;;;8.65;5.32;;;;;;;3.66;98.59;100056.59;5036900;28;20196;-77
2022/12/08 11:29:39;;;;;;;11.43;5.25;;;;;;;3.63;99.16;100055.09;5035994;28;20288;-76
2022/12/08 11:32:13;;;;;;;8.10;6.60;;;;;;;3.56;99.58;100056.84;5035917;28;20204;-77
2022/12/08 11:34:47;;;;;;;7.53;6.63;;;;;;;3.51;99.44;100056.53;5035936;28;20253;-76
2022/12/08 11:37:25;;;;;;;10.98;5.60;;;;;;;3.59;99.36;100052.97;5035707;28;20220;-76
2022/12/08 11:40:07;;;;;;;10.85;6.63;;;;;;;3.56;99.54;100054.16;5036181;28;20209;-76
2022/12/08 11:42:50;;;;;;;8.80;5.95;;;;;;;3.59;99.60;100051.13;5036809;28;20172;-75
2022/12/08 11:45:24;;;;;;;12.10;6.40;;;;;;;3.50;100.00;100054.88;5037219;28;20256;-76
2022/12/08 11:48:03;;;;;;;14.75;7.15;;;;;;;3.52;99.45;100063.56;5020296;28;20231;-76
2022/12/08 11:50:42;;;;;;;16.30;7.07;;;;;;;3.30;100.00;100064.34;5038149;28;20205;-76
2022/12/08 11:53:20;;;;;;;7.70;6.28;;;;;;;3.32;100.00;100067.69;5025594;28;20197;-76